createdAt,value
2022-09-23T00:06:35.554Z,101735.94
2022-09-23T00:13:37.473Z,101725.16
2022-09-23T00:20:40.315Z,101724.38
2022-09-23T00:27:42.334Z,101720.38
2022-09-23T00:34:44.198Z,101713.63
2022-09-23T00:41:45.759Z,101714.00
2022-09-23T00:48:48.382Z,101704.44
2022-09-23T00:55:55.687Z,101703.81
2022-09-23T01:02:57.238Z,101698.66
2022-09-23T01:09:59.116Z,101686.38
2022-09-23T01:17:21.732Z,101685.81
2022-09-23T01:24:52.987Z,101681.69
2022-09-23T01:32:31.402Z,101671.41
2022-09-23T01:39:42.566Z,101674.34
2022-09-23T01:46:48.668Z,101666.50
2022-09-23T01:54:18.254Z,101665.78
2022-09-23T02:01:31.164Z,101663.94
2022-09-23T02:08:37.401Z,101660.38
2022-09-23T02:15:41.883Z,101662.34
2022-09-23T02:22:52.478Z,101655.44
2022-09-23T02:30:03.463Z,101646.56
2022-09-23T02:37:20.931Z,101638.69
2022-09-23T02:44:22.779Z,101628.03
2022-09-23T02:51:25.705Z,101622.75
2022-09-23T02:58:27.281Z,101618.28
2022-09-23T03:05:32.229Z,101608.38
2022-09-23T03:12:42.805Z,101608.53
2022-09-23T03:19:58.457Z,101598.00
2022-09-23T03:27:13.420Z,101594.53
2022-09-23T03:34:18.171Z,101590.31
2022-09-23T03:41:31.639Z,101583.44
2022-09-23T03:48:33.226Z,101578.31
2022-09-23T03:55:34.824Z,101586.59
2022-09-23T04:02:36.383Z,101574.28
2022-09-23T04:09:38.299Z,101578.94
2022-09-23T04:16:39.891Z,101565.69
2022-09-23T04:23:41.586Z,101560.66
2022-09-23T04:30:44.217Z,101560.91
2022-09-23T04:37:47.946Z,101561.81
2022-09-23T04:44:49.518Z,101563.81
2022-09-23T04:51:51.114Z,101553.25
2022-09-23T04:58:52.994Z,101553.34
2022-09-23T05:05:59.804Z,101557.09
2022-09-23T05:13:01.358Z,101550.84
2022-09-23T05:20:03.352Z,101557.91
2022-09-23T05:27:07.043Z,101557.09
2022-09-23T05:34:08.586Z,101559.59
2022-09-23T05:41:13.423Z,101546.91
2022-09-23T05:48:15.003Z,101554.88
2022-09-23T05:55:16.726Z,101540.56
2022-09-23T06:02:18.327Z,101550.06
2022-09-23T06:09:20.028Z,101553.69
2022-09-23T06:16:21.596Z,101564.16
2022-09-23T06:23:26.291Z,101556.69
2022-09-23T06:30:28.427Z,101550.06
2022-09-23T06:37:32.195Z,101553.16
2022-09-23T06:44:33.784Z,101549.06
2022-09-23T06:51:35.596Z,101563.38
2022-09-23T06:58:38.425Z,101551.94
2022-09-23T07:05:39.993Z,101558.00
2022-09-23T07:12:41.659Z,101549.13
2022-09-23T07:19:43.855Z,101560.16
2022-09-23T07:26:45.848Z,101550.09
2022-09-23T07:33:49.087Z,101555.19
2022-09-23T07:40:50.750Z,101548.75
2022-09-23T07:47:52.375Z,101541.34
2022-09-23T07:54:54.232Z,101544.00
2022-09-23T08:01:57.189Z,101539.75
2022-09-23T08:08:59.014Z,101535.38
2022-09-23T08:16:00.800Z,101535.84
2022-09-23T08:23:02.427Z,101532.97
2022-09-23T08:30:04.249Z,101525.41
2022-09-23T08:37:10.894Z,101523.25
2022-09-23T08:44:31.524Z,101517.56
2022-09-23T08:51:40.453Z,101503.91
2022-09-23T08:59:07.400Z,101486.47
2022-09-23T09:06:13.010Z,101485.22
2022-09-23T09:13:43.172Z,101486.66
2022-09-23T09:20:57.712Z,101480.38
2022-09-23T09:27:59.351Z,101477.53
2022-09-23T09:35:05.543Z,101475.53
2022-09-23T09:42:07.500Z,101459.53
2022-09-23T09:49:23.036Z,101448.38
2022-09-23T09:56:31.012Z,101429.88
2022-09-23T10:03:42.683Z,101422.66
2022-09-23T10:11:16.833Z,101416.94
2022-09-23T10:18:20.013Z,101416.75
2022-09-23T10:25:24.528Z,101416.25
2022-09-23T10:32:34.330Z,101394.28
2022-09-23T10:39:54.422Z,101397.25
2022-09-23T10:47:10.443Z,101396.47
2022-09-23T10:54:24.097Z,101388.34
2022-09-23T11:01:41.438Z,101389.72
2022-09-23T11:09:07.722Z,101382.44
2022-09-23T11:16:15.121Z,101369.88
2022-09-23T11:23:22.656Z,101357.84
2022-09-23T11:30:24.285Z,101348.34
2022-09-23T11:37:35.173Z,101341.94
2022-09-23T11:44:42.800Z,101315.91
2022-09-23T11:52:05.361Z,101313.06
2022-09-23T11:59:11.026Z,101311.34
2022-09-23T12:06:21.465Z,101299.22
2022-09-23T12:13:58.345Z,101291.28
2022-09-23T12:21:50.571Z,101283.41
2022-09-23T12:28:54.542Z,101274.03
2022-09-23T12:36:07.017Z,101269.88
2022-09-23T12:43:16.790Z,101255.84
2022-09-23T12:50:46.576Z,101252.47
2022-09-23T12:57:49.027Z,101252.78
2022-09-23T13:05:19.343Z,101243.03
2022-09-23T13:12:24.735Z,101225.34
2022-09-23T13:19:26.174Z,101217.19
2022-09-23T13:26:27.752Z,101209.63
2022-09-23T13:33:50.461Z,101201.97
2022-09-23T13:40:57.603Z,101198.56
2022-09-23T13:48:11.247Z,101178.59
2022-09-23T13:55:33.285Z,101167.34
2022-09-23T14:02:34.913Z,101153.75
2022-09-23T14:09:36.537Z,101150.69
2022-09-23T14:16:39.358Z,101153.31
2022-09-23T14:23:47.333Z,101151.75
2022-09-23T14:30:53.855Z,101147.34
2022-09-23T14:38:15.015Z,101131.75
2022-09-23T14:45:19.619Z,101130.19
2022-09-23T14:52:21.169Z,101127.59
2022-09-23T14:59:33.182Z,101134.47
2022-09-23T15:06:36.565Z,101131.50
2022-09-23T15:13:44.089Z,101128.38
2022-09-23T15:20:53.021Z,101126.00
2022-09-23T15:28:12.763Z,101125.69
2022-09-23T15:35:15.707Z,101119.03
2022-09-23T15:42:18.167Z,101121.03
2022-09-23T15:49:28.721Z,101120.19
2022-09-23T15:56:30.275Z,101104.75
2022-09-23T16:03:31.846Z,101101.84
2022-09-23T16:10:34.024Z,101101.56
2022-09-23T16:17:37.620Z,101112.03
2022-09-23T16:24:39.163Z,101112.38
2022-09-23T16:31:40.961Z,101100.97
2022-09-23T16:38:42.576Z,101099.81
2022-09-23T16:45:45.749Z,101099.59
2022-09-23T16:52:47.343Z,101094.97
2022-09-23T17:00:07.211Z,101098.06
2022-09-23T17:07:08.611Z,101084.84
2022-09-23T17:14:10.324Z,101081.13
2022-09-23T17:21:11.932Z,101078.28
2022-09-23T17:28:13.473Z,101071.66
2022-09-23T17:35:15.208Z,101080.66
2022-09-23T17:42:18.119Z,101076.16
2022-09-23T17:49:20.237Z,101074.38
2022-09-23T17:56:24.792Z,101079.72
2022-09-23T18:03:27.283Z,101079.38
2022-09-23T18:10:30.643Z,101086.53
2022-09-23T18:17:32.217Z,101086.06
2022-09-23T18:24:37.793Z,101084.94
2022-09-23T18:31:39.408Z,101081.22
2022-09-23T18:38:41.002Z,101081.78
2022-09-23T18:45:42.621Z,101084.38
2022-09-23T18:52:44.189Z,101084.47
2022-09-23T18:59:47.242Z,101081.06
2022-09-23T19:06:49.729Z,101069.31
2022-09-23T19:13:54.923Z,101081.78
2022-09-23T19:21:01.559Z,101074.78
2022-09-23T19:28:08.231Z,101070.69
2022-09-23T19:35:10.115Z,101061.47
2022-09-23T19:42:11.640Z,101067.50
2022-09-23T19:49:13.327Z,101061.13
2022-09-23T19:56:17.837Z,101064.91
2022-09-23T20:03:19.472Z,101064.72
2022-09-23T20:10:22.001Z,101063.53
2022-09-23T20:17:23.634Z,101062.59
2022-09-23T20:24:25.202Z,101065.50
2022-09-23T20:31:28.112Z,101051.75
2022-09-23T20:38:29.755Z,101045.78
2022-09-23T20:45:31.341Z,101040.03
2022-09-23T20:52:36.885Z,101041.78
2022-09-23T20:59:39.004Z,101046.25
2022-09-23T21:06:40.605Z,101037.38
2022-09-23T21:13:46.829Z,101037.38
2022-09-23T21:20:57.831Z,101023.38
2022-09-23T21:28:01.778Z,101024.91
2022-09-23T21:35:03.387Z,101019.13
2022-09-23T21:42:05.406Z,101020.00
2022-09-23T21:49:06.988Z,101015.75
2022-09-23T21:56:10.752Z,101012.41
2022-09-23T22:03:12.435Z,101006.63
2022-09-23T22:10:14.021Z,101008.50
2022-09-23T22:17:16.148Z,101003.81
2022-09-23T22:24:17.714Z,101009.56
2022-09-23T22:31:37.827Z,101001.00
2022-09-23T22:38:41.478Z,100998.81
2022-09-23T22:45:49.573Z,100986.56
2022-09-23T22:52:52.039Z,100984.50
2022-09-23T22:59:54.318Z,100973.97
2022-09-23T23:06:56.791Z,100974.38
2022-09-23T23:14:01.289Z,100975.03
2022-09-23T23:21:10.313Z,100983.66
2022-09-23T23:28:11.946Z,100964.72
2022-09-23T23:35:13.946Z,100968.50
2022-09-23T23:42:15.529Z,100958.09
2022-09-23T23:49:17.126Z,100952.00
2022-09-23T23:56:19.751Z,100951.47
